sensor_id;sensor_type;location;lat;lon;timestamp;temperature;humidity
25825;DHT22;13658;44.534;18.694;2023-05-07T00:00:10;11.80;99.90
25825;DHT22;13658;44.534;18.694;2023-05-07T00:02:36;11.80;99.90
25825;DHT22;13658;44.534;18.694;2023-05-07T00:05:03;11.70;99.90
25825;DHT22;13658;44.534;18.694;2023-05-07T00:07:30;11.80;99.90
25825;DHT22;13658;44.534;18.694;2023-05-07T00:09:55;11.70;99.90
25825;DHT22;13658;44.534;18.694;2023-05-07T00:12:21;11.60;99.90
25825;DHT22;13658;44.534;18.694;2023-05-07T00:14:47;11.50;99.90
25825;DHT22;13658;44.534;18.694;2023-05-07T00:17:13;11.40;99.90
25825;DHT22;13658;44.534;18.694;2023-05-07T00:19:39;11.30;99.90
25825;DHT22;13658;44.534;18.694;2023-05-07T00:22:06;11.20;99.90
25825;DHT22;13658;44.534;18.694;2023-05-07T00:24:32;11.10;99.90
25825;DHT22;13658;44.534;18.694;2023-05-07T00:26:58;11.10;99.90
25825;DHT22;13658;44.534;18.694;2023-05-07T00:29:24;11.20;99.90
25825;DHT22;13658;44.534;18.694;2023-05-07T00:31:50;11.20;99.90
25825;DHT22;13658;44.534;18.694;2023-05-07T00:34:17;11.20;99.90
25825;DHT22;13658;44.534;18.694;2023-05-07T00:36:42;11.20;99.90
25825;DHT22;13658;44.534;18.694;2023-05-07T00:39:08;11.20;99.90
25825;DHT22;13658;44.534;18.694;2023-05-07T00:41:34;11.20;99.90
25825;DHT22;13658;44.534;18.694;2023-05-07T00:44:01;11.10;99.90
25825;DHT22;13658;44.534;18.694;2023-05-07T00:46:28;11.00;99.90
25825;DHT22;13658;44.534;18.694;2023-05-07T00:48:57;10.90;99.90
25825;DHT22;13658;44.534;18.694;2023-05-07T00:51:24;10.80;99.90
25825;DHT22;13658;44.534;18.694;2023-05-07T00:53:53;10.70;99.90
25825;DHT22;13658;44.534;18.694;2023-05-07T00:56:21;10.70;99.90
25825;DHT22;13658;44.534;18.694;2023-05-07T00:58:47;10.60;99.90
25825;DHT22;13658;44.534;18.694;2023-05-07T01:01:13;10.50;99.90
25825;DHT22;13658;44.534;18.694;2023-05-07T01:03:41;10.50;99.90
25825;DHT22;13658;44.534;18.694;2023-05-07T01:06:07;10.50;99.90
25825;DHT22;13658;44.534;18.694;2023-05-07T01:08:34;10.50;99.90
25825;DHT22;13658;44.534;18.694;2023-05-07T01:11:01;10.40;99.90
25825;DHT22;13658;44.534;18.694;2023-05-07T01:13:27;10.40;99.90
25825;DHT22;13658;44.534;18.694;2023-05-07T01:15:54;10.40;99.90
25825;DHT22;13658;44.534;18.694;2023-05-07T01:18:20;10.40;99.90
25825;DHT22;13658;44.534;18.694;2023-05-07T01:20:47;10.40;99.90
25825;DHT22;13658;44.534;18.694;2023-05-07T01:23:14;10.40;99.90
25825;DHT22;13658;44.534;18.694;2023-05-07T01:25:41;10.60;99.90
25825;DHT22;13658;44.534;18.694;2023-05-07T01:28:08;10.60;99.90
25825;DHT22;13658;44.534;18.694;2023-05-07T01:30:38;10.70;99.90
25825;DHT22;13658;44.534;18.694;2023-05-07T01:33:13;10.70;99.90
25825;DHT22;13658;44.534;18.694;2023-05-07T01:35:43;10.70;99.90
25825;DHT22;13658;44.534;18.694;2023-05-07T01:38:11;10.70;99.90
25825;DHT22;13658;44.534;18.694;2023-05-07T01:40:38;10.60;99.90
25825;DHT22;13658;44.534;18.694;2023-05-07T01:43:05;10.60;99.90
25825;DHT22;13658;44.534;18.694;2023-05-07T01:45:34;10.60;99.90
25825;DHT22;13658;44.534;18.694;2023-05-07T01:48:01;10.50;99.90
25825;DHT22;13658;44.534;18.694;2023-05-07T01:50:27;10.50;99.90
25825;DHT22;13658;44.534;18.694;2023-05-07T01:52:54;10.40;99.90
25825;DHT22;13658;44.534;18.694;2023-05-07T01:55:20;10.30;99.90
25825;DHT22;13658;44.534;18.694;2023-05-07T01:57:46;10.30;99.90
25825;DHT22;13658;44.534;18.694;2023-05-07T02:00:13;10.20;99.90
25825;DHT22;13658;44.534;18.694;2023-05-07T02:02:42;10.30;99.90
25825;DHT22;13658;44.534;18.694;2023-05-07T02:05:16;10.40;99.90
25825;DHT22;13658;44.534;18.694;2023-05-07T02:07:45;10.30;99.90
25825;DHT22;13658;44.534;18.694;2023-05-07T02:10:12;10.20;99.90
25825;DHT22;13658;44.534;18.694;2023-05-07T02:12:38;10.10;99.90
25825;DHT22;13658;44.534;18.694;2023-05-07T02:15:05;10.00;99.90
25825;DHT22;13658;44.534;18.694;2023-05-07T02:17:31;10.10;99.90
25825;DHT22;13658;44.534;18.694;2023-05-07T02:19:59;10.20;99.90
25825;DHT22;13658;44.534;18.694;2023-05-07T02:22:25;10.10;99.90
25825;DHT22;13658;44.534;18.694;2023-05-07T02:24:51;10.00;99.90
25825;DHT22;13658;44.534;18.694;2023-05-07T02:27:17;9.90;99.90
25825;DHT22;13658;44.534;18.694;2023-05-07T02:29:44;9.80;99.90
25825;DHT22;13658;44.534;18.694;2023-05-07T02:32:10;9.80;99.90
25825;DHT22;13658;44.534;18.694;2023-05-07T02:34:36;9.80;99.90
25825;DHT22;13658;44.534;18.694;2023-05-07T02:37:03;9.80;99.90
25825;DHT22;13658;44.534;18.694;2023-05-07T02:39:29;9.80;99.90
25825;DHT22;13658;44.534;18.694;2023-05-07T02:42:01;9.80;99.90
25825;DHT22;13658;44.534;18.694;2023-05-07T02:44:28;9.80;99.90
25825;DHT22;13658;44.534;18.694;2023-05-07T02:46:57;9.80;99.90
25825;DHT22;13658;44.534;18.694;2023-05-07T02:49:23;9.80;99.90
25825;DHT22;13658;44.534;18.694;2023-05-07T02:51:49;9.80;99.90
25825;DHT22;13658;44.534;18.694;2023-05-07T02:54:20;9.80;99.90
25825;DHT22;13658;44.534;18.694;2023-05-07T02:56:46;9.70;99.90
25825;DHT22;13658;44.534;18.694;2023-05-07T02:59:12;9.50;99.90
25825;DHT22;13658;44.534;18.694;2023-05-07T03:01:40;9.60;99.90
25825;DHT22;13658;44.534;18.694;2023-05-07T03:04:10;9.60;99.90
25825;DHT22;13658;44.534;18.694;2023-05-07T03:06:36;9.50;99.90
25825;DHT22;13658;44.534;18.694;2023-05-07T03:09:02;9.30;99.90
25825;DHT22;13658;44.534;18.694;2023-05-07T03:11:29;9.30;99.90
25825;DHT22;13658;44.534;18.694;2023-05-07T03:13:55;9.30;99.90
25825;DHT22;13658;44.534;18.694;2023-05-07T03:16:22;9.40;99.90
25825;DHT22;13658;44.534;18.694;2023-05-07T03:18:48;9.50;99.90
25825;DHT22;13658;44.534;18.694;2023-05-07T03:21:13;9.50;99.90
25825;DHT22;13658;44.534;18.694;2023-05-07T03:23:40;9.50;99.90
25825;DHT22;13658;44.534;18.694;2023-05-07T03:26:07;9.50;99.90
25825;DHT22;13658;44.534;18.694;2023-05-07T03:28:33;9.30;99.90
25825;DHT22;13658;44.534;18.694;2023-05-07T03:31:02;9.30;99.90
25825;DHT22;13658;44.534;18.694;2023-05-07T03:33:32;9.40;99.90
25825;DHT22;13658;44.534;18.694;2023-05-07T03:35:58;9.40;99.90
25825;DHT22;13658;44.534;18.694;2023-05-07T03:38:25;9.40;99.90
25825;DHT22;13658;44.534;18.694;2023-05-07T03:40:51;9.40;99.90
25825;DHT22;13658;44.534;18.694;2023-05-07T03:43:18;9.40;99.90
25825;DHT22;13658;44.534;18.694;2023-05-07T03:45:49;9.50;99.90
25825;DHT22;13658;44.534;18.694;2023-05-07T03:48:20;9.50;99.90
25825;DHT22;13658;44.534;18.694;2023-05-07T03:50:47;9.40;99.90
25825;DHT22;13658;44.534;18.694;2023-05-07T03:53:15;9.40;99.90
25825;DHT22;13658;44.534;18.694;2023-05-07T03:55:41;9.40;99.90
25825;DHT22;13658;44.534;18.694;2023-05-07T03:58:07;9.40;99.90
25825;DHT22;13658;44.534;18.694;2023-05-07T04:00:33;9.50;99.90
25825;DHT22;13658;44.534;18.694;2023-05-07T04:03:12;9.40;99.90
25825;DHT22;13658;44.534;18.694;2023-05-07T04:05:38;9.50;99.90
25825;DHT22;13658;44.534;18.694;2023-05-07T04:08:04;9.60;99.90
25825;DHT22;13658;44.534;18.694;2023-05-07T04:10:56;9.70;99.90
25825;DHT22;13658;44.534;18.694;2023-05-07T04:13:24;9.40;99.90
25825;DHT22;13658;44.534;18.694;2023-05-07T04:15:51;9.40;99.90
25825;DHT22;13658;44.534;18.694;2023-05-07T04:18:18;9.40;99.90
25825;DHT22;13658;44.534;18.694;2023-05-07T04:20:47;9.60;99.90
25825;DHT22;13658;44.534;18.694;2023-05-07T04:23:15;9.70;99.90
25825;DHT22;13658;44.534;18.694;2023-05-07T04:25:41;9.80;99.90
25825;DHT22;13658;44.534;18.694;2023-05-07T04:28:15;9.80;99.90
25825;DHT22;13658;44.534;18.694;2023-05-07T04:30:42;10.00;99.90
25825;DHT22;13658;44.534;18.694;2023-05-07T04:33:10;10.20;99.90
25825;DHT22;13658;44.534;18.694;2023-05-07T04:35:37;10.40;99.90
25825;DHT22;13658;44.534;18.694;2023-05-07T04:38:05;10.60;99.90
25825;DHT22;13658;44.534;18.694;2023-05-07T04:40:31;10.80;99.90
25825;DHT22;13658;44.534;18.694;2023-05-07T04:43:00;11.10;99.90
25825;DHT22;13658;44.534;18.694;2023-05-07T04:45:30;11.40;99.90
25825;DHT22;13658;44.534;18.694;2023-05-07T04:47:56;11.70;99.90
25825;DHT22;13658;44.534;18.694;2023-05-07T04:50:22;12.00;99.90
25825;DHT22;13658;44.534;18.694;2023-05-07T04:52:52;12.10;99.90
25825;DHT22;13658;44.534;18.694;2023-05-07T04:55:18;12.30;99.90
25825;DHT22;13658;44.534;18.694;2023-05-07T04:57:44;12.40;99.90
25825;DHT22;13658;44.534;18.694;2023-05-07T05:00:13;12.50;99.90
25825;DHT22;13658;44.534;18.694;2023-05-07T05:02:47;12.80;99.90
25825;DHT22;13658;44.534;18.694;2023-05-07T05:05:17;13.10;99.90
25825;DHT22;13658;44.534;18.694;2023-05-07T05:07:44;13.30;99.90
25825;DHT22;13658;44.534;18.694;2023-05-07T05:10:11;13.40;99.90
25825;DHT22;13658;44.534;18.694;2023-05-07T05:12:39;13.60;99.90
25825;DHT22;13658;44.534;18.694;2023-05-07T05:15:06;14.20;99.90
25825;DHT22;13658;44.534;18.694;2023-05-07T05:17:33;14.20;99.90
25825;DHT22;13658;44.534;18.694;2023-05-07T05:20:02;14.40;99.90
25825;DHT22;13658;44.534;18.694;2023-05-07T05:22:30;14.60;99.90
25825;DHT22;13658;44.534;18.694;2023-05-07T05:24:58;15.00;99.90
25825;DHT22;13658;44.534;18.694;2023-05-07T05:27:24;15.40;99.90
25825;DHT22;13658;44.534;18.694;2023-05-07T05:29:50;15.50;99.90
25825;DHT22;13658;44.534;18.694;2023-05-07T05:32:17;15.80;99.90
25825;DHT22;13658;44.534;18.694;2023-05-07T05:34:43;16.10;99.90
25825;DHT22;13658;44.534;18.694;2023-05-07T05:37:10;16.40;99.90
25825;DHT22;13658;44.534;18.694;2023-05-07T05:39:36;16.70;99.90
25825;DHT22;13658;44.534;18.694;2023-05-07T05:42:02;16.60;99.90
25825;DHT22;13658;44.534;18.694;2023-05-07T05:44:29;16.50;99.90
25825;DHT22;13658;44.534;18.694;2023-05-07T05:46:56;16.90;99.90
25825;DHT22;13658;44.534;18.694;2023-05-07T05:49:23;17.20;99.90
25825;DHT22;13658;44.534;18.694;2023-05-07T05:51:50;17.40;99.90
25825;DHT22;13658;44.534;18.694;2023-05-07T05:54:16;17.60;99.90
25825;DHT22;13658;44.534;18.694;2023-05-07T05:56:42;18.20;99.90
25825;DHT22;13658;44.534;18.694;2023-05-07T05:59:08;18.40;99.90
25825;DHT22;13658;44.534;18.694;2023-05-07T06:01:35;18.70;99.90
25825;DHT22;13658;44.534;18.694;2023-05-07T06:04:03;18.90;99.90
25825;DHT22;13658;44.534;18.694;2023-05-07T06:06:29;19.40;99.90
25825;DHT22;13658;44.534;18.694;2023-05-07T06:08:57;19.80;99.90
25825;DHT22;13658;44.534;18.694;2023-05-07T06:11:29;20.10;99.90
25825;DHT22;13658;44.534;18.694;2023-05-07T06:13:55;20.40;99.90
25825;DHT22;13658;44.534;18.694;2023-05-07T06:16:22;20.70;99.90
25825;DHT22;13658;44.534;18.694;2023-05-07T06:18:48;21.00;99.90
25825;DHT22;13658;44.534;18.694;2023-05-07T06:21:15;21.50;99.90
25825;DHT22;13658;44.534;18.694;2023-05-07T06:23:41;21.90;99.90
25825;DHT22;13658;44.534;18.694;2023-05-07T06:26:08;22.30;99.90
25825;DHT22;13658;44.534;18.694;2023-05-07T06:28:39;22.40;99.90
25825;DHT22;13658;44.534;18.694;2023-05-07T06:31:16;22.40;99.90
25825;DHT22;13658;44.534;18.694;2023-05-07T06:33:52;22.10;99.90
25825;DHT22;13658;44.534;18.694;2023-05-07T06:36:19;22.40;99.90
25825;DHT22;13658;44.534;18.694;2023-05-07T06:38:45;23.00;99.90
25825;DHT22;13658;44.534;18.694;2023-05-07T06:41:11;22.80;99.90
25825;DHT22;13658;44.534;18.694;2023-05-07T06:43:38;23.60;99.90
25825;DHT22;13658;44.534;18.694;2023-05-07T06:46:33;24.10;99.90
25825;DHT22;13658;44.534;18.694;2023-05-07T06:49:03;24.60;99.90
25825;DHT22;13658;44.534;18.694;2023-05-07T06:51:29;24.70;99.90
25825;DHT22;13658;44.534;18.694;2023-05-07T06:53:58;24.70;99.90
25825;DHT22;13658;44.534;18.694;2023-05-07T06:56:25;24.50;99.90
25825;DHT22;13658;44.534;18.694;2023-05-07T06:58:51;24.70;99.90
25825;DHT22;13658;44.534;18.694;2023-05-07T07:01:18;24.90;99.90
25825;DHT22;13658;44.534;18.694;2023-05-07T07:03:44;25.10;99.90
25825;DHT22;13658;44.534;18.694;2023-05-07T07:06:10;25.40;99.90
25825;DHT22;13658;44.534;18.694;2023-05-07T07:08:36;25.90;99.90
25825;DHT22;13658;44.534;18.694;2023-05-07T07:11:05;25.60;99.90
25825;DHT22;13658;44.534;18.694;2023-05-07T07:13:31;26.00;99.90
25825;DHT22;13658;44.534;18.694;2023-05-07T07:15:58;26.00;99.90
25825;DHT22;13658;44.534;18.694;2023-05-07T07:18:24;26.00;99.90
25825;DHT22;13658;44.534;18.694;2023-05-07T07:20:51;26.30;99.90
25825;DHT22;13658;44.534;18.694;2023-05-07T07:23:17;27.20;99.90
25825;DHT22;13658;44.534;18.694;2023-05-07T07:25:44;27.60;99.90
25825;DHT22;13658;44.534;18.694;2023-05-07T07:28:10;27.80;99.90
25825;DHT22;13658;44.534;18.694;2023-05-07T07:30:38;28.50;99.90
25825;DHT22;13658;44.534;18.694;2023-05-07T07:33:04;28.80;99.90
25825;DHT22;13658;44.534;18.694;2023-05-07T07:35:35;29.20;99.90
25825;DHT22;13658;44.534;18.694;2023-05-07T07:38:01;29.10;99.90
25825;DHT22;13658;44.534;18.694;2023-05-07T07:40:29;29.10;99.90
25825;DHT22;13658;44.534;18.694;2023-05-07T07:42:57;29.30;99.90
25825;DHT22;13658;44.534;18.694;2023-05-07T07:45:23;30.20;99.90
25825;DHT22;13658;44.534;18.694;2023-05-07T07:47:50;30.30;99.90
25825;DHT22;13658;44.534;18.694;2023-05-07T07:50:16;30.80;99.90
25825;DHT22;13658;44.534;18.694;2023-05-07T07:52:44;31.10;99.90
25825;DHT22;13658;44.534;18.694;2023-05-07T07:55:11;31.30;99.90
25825;DHT22;13658;44.534;18.694;2023-05-07T07:57:39;31.30;99.90
25825;DHT22;13658;44.534;18.694;2023-05-07T08:00:06;31.60;99.90
25825;DHT22;13658;44.534;18.694;2023-05-07T08:02:42;31.70;99.90
25825;DHT22;13658;44.534;18.694;2023-05-07T08:05:09;31.40;99.90
25825;DHT22;13658;44.534;18.694;2023-05-07T08:07:36;31.80;99.90
25825;DHT22;13658;44.534;18.694;2023-05-07T08:10:02;32.00;99.90
25825;DHT22;13658;44.534;18.694;2023-05-07T08:12:28;31.60;99.90
25825;DHT22;13658;44.534;18.694;2023-05-07T08:14:56;32.70;99.90
25825;DHT22;13658;44.534;18.694;2023-05-07T08:17:22;32.40;99.90
25825;DHT22;13658;44.534;18.694;2023-05-07T08:19:49;32.80;99.90
25825;DHT22;13658;44.534;18.694;2023-05-07T08:22:15;32.90;99.90
25825;DHT22;13658;44.534;18.694;2023-05-07T08:24:43;33.40;99.90
25825;DHT22;13658;44.534;18.694;2023-05-07T08:27:11;32.90;99.90
25825;DHT22;13658;44.534;18.694;2023-05-07T08:29:39;32.50;99.90
25825;DHT22;13658;44.534;18.694;2023-05-07T08:32:05;33.40;99.90
25825;DHT22;13658;44.534;18.694;2023-05-07T08:34:31;33.30;99.90
25825;DHT22;13658;44.534;18.694;2023-05-07T08:37:00;32.80;99.90
25825;DHT22;13658;44.534;18.694;2023-05-07T08:39:27;33.60;99.90
25825;DHT22;13658;44.534;18.694;2023-05-07T08:41:55;33.90;99.90
25825;DHT22;13658;44.534;18.694;2023-05-07T08:44:26;33.90;99.90
25825;DHT22;13658;44.534;18.694;2023-05-07T08:46:56;34.70;99.90
25825;DHT22;13658;44.534;18.694;2023-05-07T08:49:24;34.90;99.90
25825;DHT22;13658;44.534;18.694;2023-05-07T08:51:52;35.00;99.90
25825;DHT22;13658;44.534;18.694;2023-05-07T08:54:20;34.60;99.90
25825;DHT22;13658;44.534;18.694;2023-05-07T08:56:47;33.60;99.90
25825;DHT22;13658;44.534;18.694;2023-05-07T08:59:14;32.60;99.90
25825;DHT22;13658;44.534;18.694;2023-05-07T09:01:41;33.10;99.90
25825;DHT22;13658;44.534;18.694;2023-05-07T09:04:07;32.70;99.90
25825;DHT22;13658;44.534;18.694;2023-05-07T09:06:35;32.90;99.90
25825;DHT22;13658;44.534;18.694;2023-05-07T09:09:04;34.50;99.90
25825;DHT22;13658;44.534;18.694;2023-05-07T09:11:32;33.70;99.90
25825;DHT22;13658;44.534;18.694;2023-05-07T09:14:00;32.50;99.90
25825;DHT22;13658;44.534;18.694;2023-05-07T09:16:30;32.20;99.90
25825;DHT22;13658;44.534;18.694;2023-05-07T09:18:58;32.60;99.90
25825;DHT22;13658;44.534;18.694;2023-05-07T09:21:26;33.30;99.90
25825;DHT22;13658;44.534;18.694;2023-05-07T09:23:55;32.70;99.90
25825;DHT22;13658;44.534;18.694;2023-05-07T09:26:27;32.90;99.90
25825;DHT22;13658;44.534;18.694;2023-05-07T09:28:54;32.70;99.90
25825;DHT22;13658;44.534;18.694;2023-05-07T09:31:20;32.70;99.90
25825;DHT22;13658;44.534;18.694;2023-05-07T09:33:49;32.80;99.90
25825;DHT22;13658;44.534;18.694;2023-05-07T09:36:16;32.40;99.90
25825;DHT22;13658;44.534;18.694;2023-05-07T09:38:45;32.80;99.90
25825;DHT22;13658;44.534;18.694;2023-05-07T09:41:12;32.90;99.90
25825;DHT22;13658;44.534;18.694;2023-05-07T09:44:04;32.10;99.90
25825;DHT22;13658;44.534;18.694;2023-05-07T09:46:38;32.60;99.90
25825;DHT22;13658;44.534;18.694;2023-05-07T09:49:21;32.70;99.90
25825;DHT22;13658;44.534;18.694;2023-05-07T09:51:50;32.90;99.90
25825;DHT22;13658;44.534;18.694;2023-05-07T09:54:18;33.40;99.90
25825;DHT22;13658;44.534;18.694;2023-05-07T09:56:52;33.10;99.90
25825;DHT22;13658;44.534;18.694;2023-05-07T09:59:20;32.10;99.90
25825;DHT22;13658;44.534;18.694;2023-05-07T10:01:49;31.30;99.90
25825;DHT22;13658;44.534;18.694;2023-05-07T10:04:16;31.60;99.90
25825;DHT22;13658;44.534;18.694;2023-05-07T10:06:44;31.90;99.90
25825;DHT22;13658;44.534;18.694;2023-05-07T10:09:12;32.50;99.90
25825;DHT22;13658;44.534;18.694;2023-05-07T10:11:39;33.10;99.90
25825;DHT22;13658;44.534;18.694;2023-05-07T10:14:06;32.10;99.90
25825;DHT22;13658;44.534;18.694;2023-05-07T10:16:34;31.90;99.90
25825;DHT22;13658;44.534;18.694;2023-05-07T10:19:04;31.20;99.90
25825;DHT22;13658;44.534;18.694;2023-05-07T10:21:38;30.70;99.90
25825;DHT22;13658;44.534;18.694;2023-05-07T10:24:09;32.20;99.90
25825;DHT22;13658;44.534;18.694;2023-05-07T10:26:43;32.90;99.90
25825;DHT22;13658;44.534;18.694;2023-05-07T10:34:54;33.50;99.90
25825;DHT22;13658;44.534;18.694;2023-05-07T10:37:22;34.50;99.90
25825;DHT22;13658;44.534;18.694;2023-05-07T10:39:49;33.60;99.90
25825;DHT22;13658;44.534;18.694;2023-05-07T10:42:15;33.80;99.90
25825;DHT22;13658;44.534;18.694;2023-05-07T10:44:47;33.70;99.90
25825;DHT22;13658;44.534;18.694;2023-05-07T10:47:21;33.10;99.90
25825;DHT22;13658;44.534;18.694;2023-05-07T10:52:23;31.60;99.90
25825;DHT22;13658;44.534;18.694;2023-05-07T11:00:49;29.90;99.90
25825;DHT22;13658;44.534;18.694;2023-05-07T11:03:23;29.60;99.90
25825;DHT22;13658;44.534;18.694;2023-05-07T11:06:15;29.50;99.90
25825;DHT22;13658;44.534;18.694;2023-05-07T11:09:08;28.70;99.90
25825;DHT22;13658;44.534;18.694;2023-05-07T11:11:45;28.20;99.90
25825;DHT22;13658;44.534;18.694;2023-05-07T11:14:50;27.70;99.90
25825;DHT22;13658;44.534;18.694;2023-05-07T11:17:22;27.50;99.90
25825;DHT22;13658;44.534;18.694;2023-05-07T11:19:56;27.30;99.90
25825;DHT22;13658;44.534;18.694;2023-05-07T11:22:36;27.30;99.90
25825;DHT22;13658;44.534;18.694;2023-05-07T11:25:34;27.40;99.90
25825;DHT22;13658;44.534;18.694;2023-05-07T11:28:13;27.50;99.90
25825;DHT22;13658;44.534;18.694;2023-05-07T11:30:45;27.70;99.90
25825;DHT22;13658;44.534;18.694;2023-05-07T11:33:17;27.90;99.90
25825;DHT22;13658;44.534;18.694;2023-05-07T11:35:44;27.80;99.90
25825;DHT22;13658;44.534;18.694;2023-05-07T11:38:13;27.40;99.90
25825;DHT22;13658;44.534;18.694;2023-05-07T11:40:54;27.30;99.90
25825;DHT22;13658;44.534;18.694;2023-05-07T11:43:21;27.40;99.90
25825;DHT22;13658;44.534;18.694;2023-05-07T11:45:47;27.80;99.90
25825;DHT22;13658;44.534;18.694;2023-05-07T11:48:14;28.00;99.90
25825;DHT22;13658;44.534;18.694;2023-05-07T11:51:04;27.70;99.90
25825;DHT22;13658;44.534;18.694;2023-05-07T11:53:38;27.60;99.90
25825;DHT22;13658;44.534;18.694;2023-05-07T11:56:08;27.30;99.90
25825;DHT22;13658;44.534;18.694;2023-05-07T11:58:34;27.10;99.90
25825;DHT22;13658;44.534;18.694;2023-05-07T12:01:00;27.10;99.90
25825;DHT22;13658;44.534;18.694;2023-05-07T12:03:26;27.20;99.90
25825;DHT22;13658;44.534;18.694;2023-05-07T12:05:52;27.20;99.90
25825;DHT22;13658;44.534;18.694;2023-05-07T12:08:20;27.00;99.90
25825;DHT22;13658;44.534;18.694;2023-05-07T12:10:50;27.00;99.90
25825;DHT22;13658;44.534;18.694;2023-05-07T12:13:25;27.00;99.90
25825;DHT22;13658;44.534;18.694;2023-05-07T12:15:55;27.10;99.90
25825;DHT22;13658;44.534;18.694;2023-05-07T12:18:22;27.10;99.90
25825;DHT22;13658;44.534;18.694;2023-05-07T12:20:49;27.10;99.90
25825;DHT22;13658;44.534;18.694;2023-05-07T12:23:16;27.20;99.90
25825;DHT22;13658;44.534;18.694;2023-05-07T12:25:43;27.30;99.90
25825;DHT22;13658;44.534;18.694;2023-05-07T12:28:19;27.20;99.90
25825;DHT22;13658;44.534;18.694;2023-05-07T12:30:47;27.40;99.90
25825;DHT22;13658;44.534;18.694;2023-05-07T12:33:18;27.50;99.90
25825;DHT22;13658;44.534;18.694;2023-05-07T12:35:44;27.50;99.90
25825;DHT22;13658;44.534;18.694;2023-05-07T12:38:13;27.40;99.90
25825;DHT22;13658;44.534;18.694;2023-05-07T12:40:44;27.50;99.90
25825;DHT22;13658;44.534;18.694;2023-05-07T12:43:24;27.50;99.90
25825;DHT22;13658;44.534;18.694;2023-05-07T12:45:51;27.40;99.90
25825;DHT22;13658;44.534;18.694;2023-05-07T12:48:19;27.40;99.90
25825;DHT22;13658;44.534;18.694;2023-05-07T12:50:59;27.60;99.90
25825;DHT22;13658;44.534;18.694;2023-05-07T12:53:26;27.70;99.90
25825;DHT22;13658;44.534;18.694;2023-05-07T12:55:54;27.50;99.90
25825;DHT22;13658;44.534;18.694;2023-05-07T12:58:27;27.40;99.90
25825;DHT22;13658;44.534;18.694;2023-05-07T13:00:54;27.40;99.90
25825;DHT22;13658;44.534;18.694;2023-05-07T13:03:29;27.70;99.90
25825;DHT22;13658;44.534;18.694;2023-05-07T13:06:06;27.60;99.90
25825;DHT22;13658;44.534;18.694;2023-05-07T13:08:37;27.70;99.90
25825;DHT22;13658;44.534;18.694;2023-05-07T13:11:08;27.80;99.90
25825;DHT22;13658;44.534;18.694;2023-05-07T13:13:36;27.40;99.90
25825;DHT22;13658;44.534;18.694;2023-05-07T13:16:03;27.50;99.90
25825;DHT22;13658;44.534;18.694;2023-05-07T13:18:31;27.60;99.90
25825;DHT22;13658;44.534;18.694;2023-05-07T13:20:57;27.60;99.90
25825;DHT22;13658;44.534;18.694;2023-05-07T13:23:23;27.60;99.90
25825;DHT22;13658;44.534;18.694;2023-05-07T13:25:49;27.50;99.90
25825;DHT22;13658;44.534;18.694;2023-05-07T13:28:16;27.40;99.90
25825;DHT22;13658;44.534;18.694;2023-05-07T13:30:42;27.40;99.90
25825;DHT22;13658;44.534;18.694;2023-05-07T13:33:09;27.10;99.90
25825;DHT22;13658;44.534;18.694;2023-05-07T13:35:35;26.90;99.90
25825;DHT22;13658;44.534;18.694;2023-05-07T13:38:01;26.80;99.90
25825;DHT22;13658;44.534;18.694;2023-05-07T13:40:27;26.60;99.90
25825;DHT22;13658;44.534;18.694;2023-05-07T13:42:54;26.50;99.90
25825;DHT22;13658;44.534;18.694;2023-05-07T13:45:20;26.70;99.90
25825;DHT22;13658;44.534;18.694;2023-05-07T13:47:46;26.40;99.90
25825;DHT22;13658;44.534;18.694;2023-05-07T13:50:14;26.30;99.90
25825;DHT22;13658;44.534;18.694;2023-05-07T13:52:41;26.50;99.90
25825;DHT22;13658;44.534;18.694;2023-05-07T13:55:09;26.60;99.90
25825;DHT22;13658;44.534;18.694;2023-05-07T13:57:36;26.40;99.90
25825;DHT22;13658;44.534;18.694;2023-05-07T14:00:04;26.50;99.90
25825;DHT22;13658;44.534;18.694;2023-05-07T14:02:40;26.60;99.90
25825;DHT22;13658;44.534;18.694;2023-05-07T14:05:07;26.70;99.90
25825;DHT22;13658;44.534;18.694;2023-05-07T14:07:33;26.70;99.90
25825;DHT22;13658;44.534;18.694;2023-05-07T14:09:59;26.50;99.90
25825;DHT22;13658;44.534;18.694;2023-05-07T14:12:25;26.50;99.90
25825;DHT22;13658;44.534;18.694;2023-05-07T14:14:51;26.60;99.90
25825;DHT22;13658;44.534;18.694;2023-05-07T14:17:17;26.60;99.90
25825;DHT22;13658;44.534;18.694;2023-05-07T14:19:44;26.40;99.90
25825;DHT22;13658;44.534;18.694;2023-05-07T14:22:10;26.40;99.90
25825;DHT22;13658;44.534;18.694;2023-05-07T14:24:36;26.30;99.90
25825;DHT22;13658;44.534;18.694;2023-05-07T14:27:02;26.30;99.90
25825;DHT22;13658;44.534;18.694;2023-05-07T14:29:28;26.40;99.90
25825;DHT22;13658;44.534;18.694;2023-05-07T14:31:54;26.40;99.90
25825;DHT22;13658;44.534;18.694;2023-05-07T14:34:20;26.30;99.90
25825;DHT22;13658;44.534;18.694;2023-05-07T14:36:46;26.40;99.90
25825;DHT22;13658;44.534;18.694;2023-05-07T14:39:12;26.40;99.90
25825;DHT22;13658;44.534;18.694;2023-05-07T14:41:38;26.40;99.90
25825;DHT22;13658;44.534;18.694;2023-05-07T14:44:04;26.40;99.90
25825;DHT22;13658;44.534;18.694;2023-05-07T14:46:30;26.40;99.90
25825;DHT22;13658;44.534;18.694;2023-05-07T14:48:57;26.30;99.90
25825;DHT22;13658;44.534;18.694;2023-05-07T14:51:23;26.40;99.90
25825;DHT22;13658;44.534;18.694;2023-05-07T14:53:50;26.30;99.90
25825;DHT22;13658;44.534;18.694;2023-05-07T14:56:16;26.30;99.90
25825;DHT22;13658;44.534;18.694;2023-05-07T14:58:43;26.30;99.90
25825;DHT22;13658;44.534;18.694;2023-05-07T15:01:09;26.30;99.90
25825;DHT22;13658;44.534;18.694;2023-05-07T15:03:35;26.30;99.90
25825;DHT22;13658;44.534;18.694;2023-05-07T15:06:02;26.30;99.90
25825;DHT22;13658;44.534;18.694;2023-05-07T15:08:28;26.30;99.90
25825;DHT22;13658;44.534;18.694;2023-05-07T15:10:54;26.30;99.90
25825;DHT22;13658;44.534;18.694;2023-05-07T15:13:21;26.30;99.90
25825;DHT22;13658;44.534;18.694;2023-05-07T15:15:47;26.30;99.90
25825;DHT22;13658;44.534;18.694;2023-05-07T15:18:14;26.10;99.90
25825;DHT22;13658;44.534;18.694;2023-05-07T15:20:41;26.20;99.90
25825;DHT22;13658;44.534;18.694;2023-05-07T15:23:08;26.20;99.90
25825;DHT22;13658;44.534;18.694;2023-05-07T15:25:43;26.10;99.90
25825;DHT22;13658;44.534;18.694;2023-05-07T15:28:09;26.20;99.90
25825;DHT22;13658;44.534;18.694;2023-05-07T15:30:35;26.20;99.90
25825;DHT22;13658;44.534;18.694;2023-05-07T15:33:02;26.10;99.90
25825;DHT22;13658;44.534;18.694;2023-05-07T15:35:29;25.90;99.90
25825;DHT22;13658;44.534;18.694;2023-05-07T15:37:55;25.90;99.90